Time;durP1;ratioP1;P1;durP2;ratioP2;P2;SDS_P1;SDS_P2;PMS_P1;PMS_P2;Temp;Humidity;BMP_temperature;BMP_pressure;BME280_temperature;BME280_humidity;BME280_pressure;Samples;Min_cycle;Max_cycle;Signal;HPM_P1;HPM_P2
2023/09/06 00:01:25;;;;;;;10.38;6.75;;;10.10;99.90;;;;;;5045141;28;20033;-92
2023/09/06 00:03:50;;;;;;;9.95;6.75;;;10.10;99.90;;;;;;5048359;28;20017;-86
2023/09/06 00:06:16;;;;;;;9.68;6.63;;;10.10;99.90;;;;;;5032970;28;20067;-90
2023/09/06 00:08:42;;;;;;;11.32;7.10;;;10.00;99.90;;;;;;5038012;28;20024;-86
2023/09/06 00:11:08;;;;;;;8.95;6.80;;;10.10;99.90;;;;;;5035712;28;20028;-92
2023/09/06 00:13:35;;;;;;;8.45;7.05;;;10.00;99.90;;;;;;5048428;28;20478;-93
2023/09/06 00:16:02;;;;;;;8.48;6.82;;;10.00;99.90;;;;;;5031911;28;20042;-93
2023/09/06 00:18:27;;;;;;;7.43;6.18;;;10.00;99.90;;;;;;5038565;28;20028;-86
2023/09/06 00:20:53;;;;;;;9.70;6.78;;;10.00;99.90;;;;;;5042962;28;20017;-85
2023/09/06 00:23:20;;;;;;;7.88;6.15;;;10.00;99.90;;;;;;5044420;28;20101;-86
2023/09/06 00:25:46;;;;;;;6.95;6.25;;;10.00;99.90;;;;;;5044003;28;20044;-85
2023/09/06 00:28:15;;;;;;;9.15;6.10;;;10.00;99.90;;;;;;5039019;28;20489;-86
2023/09/06 00:30:44;;;;;;;9.77;6.00;;;9.90;99.90;;;;;;5041559;28;20026;-87
2023/09/06 00:33:10;;;;;;;8.93;5.88;;;9.90;99.90;;;;;;5039759;28;20477;-93
2023/09/06 00:35:40;;;;;;;11.25;6.35;;;9.90;99.90;;;;;;5046585;28;20116;-87
2023/09/06 00:38:06;;;;;;;10.20;6.28;;;10.00;99.90;;;;;;5048783;28;20398;-92
2023/09/06 00:40:36;;;;;;;11.90;6.15;;;9.90;99.90;;;;;;5048083;28;20025;-86
2023/09/06 00:43:03;;;;;;;11.43;6.85;;;9.90;99.90;;;;;;5048842;28;20029;-86
2023/09/06 00:45:45;;;;;;;7.88;5.88;;;9.90;99.90;;;;;;5036231;28;20087;-92
2023/09/06 00:48:13;;;;;;;9.02;5.97;;;9.90;99.90;;;;;;5035596;28;20013;-92
2023/09/06 00:50:40;;;;;;;8.10;6.00;;;9.90;99.90;;;;;;5021612;28;20025;-92
2023/09/06 00:53:07;;;;;;;8.10;5.63;;;9.90;99.90;;;;;;5025224;28;20059;-86
2023/09/06 00:55:37;;;;;;;10.05;5.85;;;9.90;99.90;;;;;;5029840;28;20078;-92
2023/09/06 00:58:07;;;;;;;9.43;6.22;;;9.90;99.90;;;;;;5027885;28;20390;-85
2023/09/06 01:00:35;;;;;;;8.68;6.15;;;9.90;99.90;;;;;;5027864;28;20037;-91
2023/09/06 01:03:04;;;;;;;12.02;7.70;;;9.90;99.90;;;;;;5029290;28;20096;-91
2023/09/06 01:05:39;;;;;;;8.82;6.45;;;9.90;99.90;;;;;;5027930;28;20078;-86
2023/09/06 01:08:09;;;;;;;8.68;6.32;;;9.90;99.90;;;;;;5027584;28;20028;-86
2023/09/06 01:10:35;;;;;;;7.63;6.25;;;9.90;99.90;;;;;;5040225;28;20093;-86
2023/09/06 01:13:01;;;;;;;7.55;5.80;;;9.90;99.90;;;;;;5035544;28;20466;-91
2023/09/06 01:15:27;;;;;;;9.80;6.75;;;9.90;99.90;;;;;;5035361;28;20042;-85
2023/09/06 01:17:54;;;;;;;9.77;6.40;;;9.80;99.90;;;;;;5047905;28;20020;-85
2023/09/06 01:20:33;;;;;;;6.20;5.32;;;9.90;99.90;;;;;;5047926;28;20021;-89
2023/09/06 01:23:21;;;;;;;7.32;5.50;;;9.80;99.90;;;;;;5048935;28;20107;-91
2023/09/06 01:25:47;;;;;;;7.97;6.00;;;9.80;99.90;;;;;;5034149;28;20017;-85
2023/09/06 01:28:13;;;;;;;8.20;6.28;;;9.80;99.90;;;;;;5038330;28;20029;-92
2023/09/06 01:30:38;;;;;;;7.60;5.93;;;9.80;99.90;;;;;;5027861;28;20063;-91
2023/09/06 01:33:04;;;;;;;9.52;5.82;;;9.80;99.90;;;;;;5028663;28;20475;-85
2023/09/06 01:35:30;;;;;;;6.25;5.57;;;9.70;99.90;;;;;;5028736;28;20033;-85
2023/09/06 01:37:56;;;;;;;8.70;6.55;;;9.70;99.90;;;;;;5030779;28;20049;-92
2023/09/06 01:40:26;;;;;;;7.15;5.70;;;9.70;99.90;;;;;;5036462;28;20025;-86
2023/09/06 01:42:52;;;;;;;11.15;6.82;;;9.70;99.90;;;;;;5052742;28;20070;-85
2023/09/06 01:45:18;;;;;;;8.68;5.88;;;9.70;99.90;;;;;;5046239;28;20455;-85
2023/09/06 01:47:46;;;;;;;7.57;5.55;;;9.70;99.90;;;;;;5043975;28;20022;-91
2023/09/06 01:50:12;;;;;;;8.02;6.30;;;9.70;99.90;;;;;;5030405;28;20018;-86
2023/09/06 01:52:40;;;;;;;7.47;5.95;;;9.70;99.90;;;;;;5011895;28;20034;-86
2023/09/06 01:55:08;;;;;;;7.78;5.70;;;9.70;99.90;;;;;;5030560;28;20028;-91
2023/09/06 01:57:33;;;;;;;6.68;5.88;;;9.70;99.90;;;;;;5042706;28;20442;-86
2023/09/06 01:59:59;;;;;;;7.72;6.22;;;9.60;99.90;;;;;;5033288;28;20097;-85
2023/09/06 02:02:25;;;;;;;7.97;5.90;;;9.70;99.90;;;;;;5042397;28;20024;-86
2023/09/06 02:04:50;;;;;;;8.65;6.40;;;9.60;99.90;;;;;;5034040;28;20026;-86
2023/09/06 02:07:16;;;;;;;8.35;6.10;;;9.70;99.90;;;;;;5032084;28;20056;-92
2023/09/06 02:09:42;;;;;;;8.13;6.13;;;9.70;99.90;;;;;;5048402;28;20013;-91
2023/09/06 02:12:07;;;;;;;7.28;5.57;;;9.60;99.90;;;;;;5039511;28;20077;-91
2023/09/06 02:14:34;;;;;;;8.07;6.20;;;9.60;99.90;;;;;;5031877;28;20166;-91
2023/09/06 02:17:00;;;;;;;7.45;5.65;;;9.60;99.90;;;;;;5042162;28;20036;-90
2023/09/06 02:19:26;;;;;;;10.95;6.03;;;9.60;99.90;;;;;;5037240;28;20031;-91
2023/09/06 02:21:52;;;;;;;7.53;6.03;;;9.60;99.90;;;;;;5050258;28;20111;-91
2023/09/06 02:24:18;;;;;;;8.45;5.63;;;9.50;99.90;;;;;;5044723;28;20104;-91
2023/09/06 02:26:44;;;;;;;8.23;5.70;;;9.50;99.90;;;;;;5043879;28;20534;-90
2023/09/06 02:29:11;;;;;;;11.27;6.72;;;9.60;99.90;;;;;;5033137;28;20017;-91
2023/09/06 02:31:38;;;;;;;8.77;5.78;;;9.60;99.90;;;;;;5041963;28;20028;-85
2023/09/06 02:34:04;;;;;;;9.35;6.55;;;9.50;99.90;;;;;;5037628;28;20013;-90
2023/09/06 02:36:30;;;;;;;9.77;6.82;;;9.60;99.90;;;;;;5037873;28;20057;-85
2023/09/06 02:38:57;;;;;;;6.35;5.70;;;9.50;99.90;;;;;;5037054;28;20017;-86
2023/09/06 02:41:23;;;;;;;8.68;6.40;;;9.60;99.90;;;;;;5039333;28;20041;-90
2023/09/06 02:43:49;;;;;;;9.45;6.97;;;9.50;99.90;;;;;;5035543;28;20363;-90
2023/09/06 02:46:15;;;;;;;11.15;6.47;;;9.50;99.90;;;;;;5037427;28;20086;-86
2023/09/06 02:48:46;;;;;;;7.80;5.68;;;9.50;99.90;;;;;;5035004;28;20017;-86
2023/09/06 02:51:15;;;;;;;6.88;6.00;;;9.50;99.90;;;;;;5038182;28;20036;-92
2023/09/06 02:53:45;;;;;;;9.43;6.63;;;9.40;99.90;;;;;;5036864;28;20029;-86
2023/09/06 02:56:13;;;;;;;8.13;5.43;;;9.40;99.90;;;;;;5028919;28;20064;-92
2023/09/06 02:58:41;;;;;;;8.15;5.63;;;9.30;99.90;;;;;;5042612;28;20026;-85
2023/09/06 03:01:19;;;;;;;10.10;6.43;;;9.30;99.90;;;;;;5029946;28;20213;-85
2023/09/06 03:03:47;;;;;;;9.32;6.55;;;9.30;99.90;;;;;;5015277;28;20026;-94
2023/09/06 03:06:17;;;;;;;10.23;5.68;;;9.30;99.90;;;;;;5030171;28;20018;-94
2023/09/06 03:08:44;;;;;;;8.77;6.05;;;9.30;99.90;;;;;;5040851;28;20021;-87
2023/09/06 03:11:14;;;;;;;8.45;6.50;;;9.30;99.90;;;;;;5041786;28;20021;-94
2023/09/06 03:13:43;;;;;;;10.45;6.63;;;9.30;99.90;;;;;;5035944;28;20025;-94
2023/09/06 03:16:13;;;;;;;7.28;6.57;;;9.30;99.90;;;;;;5038430;28;20067;-89
2023/09/06 03:18:40;;;;;;;9.43;6.15;;;9.20;99.90;;;;;;5018751;28;20052;-87
2023/09/06 03:21:06;;;;;;;6.78;6.07;;;9.20;99.90;;;;;;5039870;28;20025;-93
2023/09/06 03:23:32;;;;;;;7.78;5.45;;;9.20;99.90;;;;;;5033678;28;20040;-92
2023/09/06 03:25:58;;;;;;;6.80;5.80;;;9.20;99.90;;;;;;5044354;28;20014;-92
2023/09/06 03:28:28;;;;;;;8.07;6.20;;;9.20;99.90;;;;;;5039155;28;20130;-86
2023/09/06 03:31:03;;;;;;;9.65;6.07;;;9.20;99.90;;;;;;5035774;28;20021;-91
2023/09/06 03:33:30;;;;;;;7.00;5.50;;;9.10;99.90;;;;;;5039027;28;20017;-87
2023/09/06 03:35:56;;;;;;;9.10;6.55;;;9.10;99.90;;;;;;5029660;28;20029;-92
2023/09/06 03:38:25;;;;;;;8.57;6.45;;;9.10;99.90;;;;;;5028997;28;20463;-86
2023/09/06 03:40:51;;;;;;;8.25;6.65;;;9.10;99.90;;;;;;5029653;28;20052;-91
2023/09/06 03:43:20;;;;;;;11.38;7.03;;;9.10;99.90;;;;;;5029270;28;20052;-86
2023/09/06 03:45:55;;;;;;;9.02;6.25;;;9.00;99.90;;;;;;5029944;28;20025;-87
2023/09/06 03:48:23;;;;;;;11.15;6.35;;;9.10;99.90;;;;;;5030828;28;20538;-93
2023/09/06 03:50:58;;;;;;;7.90;6.28;;;9.10;99.90;;;;;;5030006;28;20060;-87
2023/09/06 03:53:27;;;;;;;6.85;5.30;;;9.00;99.90;;;;;;5031124;28;20558;-94
2023/09/06 03:55:58;;;;;;;8.13;6.07;;;9.00;99.90;;;;;;5029599;28;20126;-92
2023/09/06 03:58:24;;;;;;;9.35;6.50;;;9.00;99.90;;;;;;5031265;28;20475;-92
2023/09/06 04:00:51;;;;;;;6.57;5.68;;;8.90;99.90;;;;;;5038548;28;20033;-86
2023/09/06 04:03:18;;;;;;;7.38;5.95;;;8.90;99.90;;;;;;5032733;28;20376;-85
2023/09/06 04:05:45;;;;;;;6.32;5.72;;;8.90;99.90;;;;;;5034557;28;20078;-86
2023/09/06 04:08:11;;;;;;;5.97;4.88;;;8.80;99.90;;;;;;5037044;28;20405;-93
2023/09/06 04:10:38;;;;;;;9.18;5.30;;;8.80;99.90;;;;;;5029496;28;20090;-93
2023/09/06 04:13:05;;;;;;;8.15;5.32;;;8.80;99.90;;;;;;5029100;28;20108;-86
2023/09/06 04:15:34;;;;;;;8.93;5.13;;;8.70;99.90;;;;;;5030151;28;20034;-86
2023/09/06 04:18:02;;;;;;;6.88;4.75;;;8.70;99.90;;;;;;5030953;28;20028;-93
2023/09/06 04:20:36;;;;;;;11.02;5.30;;;8.70;99.90;;;;;;5017152;28;20441;-94
2023/09/06 04:23:06;;;;;;;6.80;5.63;;;8.70;99.90;;;;;;5029522;28;20029;-94
2023/09/06 04:25:44;;;;;;;7.72;5.65;;;8.70;99.90;;;;;;5029226;28;20430;-88
2023/09/06 04:28:12;;;;;;;5.88;5.25;;;8.70;99.90;;;;;;5041336;28;20470;-94
2023/09/06 04:30:42;;;;;;;7.10;4.60;;;8.70;99.90;;;;;;5045684;28;20637;-93
2023/09/06 04:33:15;;;;;;;10.27;5.68;;;8.70;99.90;;;;;;5040955;28;20026;-86
2023/09/06 04:35:44;;;;;;;7.63;5.72;;;8.70;99.90;;;;;;5038078;28;20041;-87
2023/09/06 04:38:14;;;;;;;6.80;6.03;;;8.80;99.90;;;;;;5028009;28;20140;-92
2023/09/06 04:40:44;;;;;;;8.35;6.30;;;8.80;99.90;;;;;;5027490;28;20022;-93
2023/09/06 04:43:11;;;;;;;8.40;6.88;;;8.90;99.90;;;;;;5026985;28;20044;-93
2023/09/06 04:45:39;;;;;;;10.10;6.18;;;8.90;99.90;;;;;;5028002;28;20022;-87
2023/09/06 04:48:08;;;;;;;9.38;6.30;;;9.00;99.90;;;;;;5027985;28;20029;-94
2023/09/06 04:50:37;;;;;;;10.00;6.72;;;9.10;99.90;;;;;;5027354;28;20026;-87
2023/09/06 04:53:04;;;;;;;8.18;6.45;;;9.20;99.90;;;;;;5028367;28;20078;-86
2023/09/06 04:55:35;;;;;;;6.50;5.15;;;9.20;99.90;;;;;;5028048;28;20061;-93
2023/09/06 04:58:02;;;;;;;6.70;5.30;;;9.30;99.90;;;;;;5033877;28;20455;-94
2023/09/06 05:00:36;;;;;;;6.70;5.22;;;9.30;99.90;;;;;;5034406;28;20053;-87
2023/09/06 05:03:02;;;;;;;6.20;5.53;;;9.20;99.90;;;;;;5029188;28;20467;-87
2023/09/06 05:05:28;;;;;;;6.15;5.63;;;9.30;99.90;;;;;;5035793;28;20071;-93
2023/09/06 05:07:54;;;;;;;12.05;5.82;;;9.50;99.90;;;;;;5041790;28;20021;-91
2023/09/06 05:10:20;;;;;;;7.13;5.30;;;9.50;99.90;;;;;;5045924;28;20021;-88
2023/09/06 05:12:46;;;;;;;5.93;5.25;;;9.60;99.90;;;;;;5028687;28;20029;-89
2023/09/06 05:15:13;;;;;;;7.78;4.75;;;9.70;99.90;;;;;;5029534;28;20036;-92
2023/09/06 05:17:40;;;;;;;7.50;5.10;;;9.80;99.90;;;;;;5017602;28;20030;-88
2023/09/06 05:20:32;;;;;;;16.55;7.05;;;9.90;99.90;;;;;;5030167;28;20047;-93
2023/09/06 05:23:03;;;;;;;11.95;6.68;;;10.00;99.90;;;;;;5042681;28;20025;-88
2023/09/06 05:25:29;;;;;;;14.70;7.60;;;10.20;99.90;;;;;;5039149;28;20021;-89
2023/09/06 05:28:04;;;;;;;10.45;5.95;;;10.30;99.90;;;;;;5038341;28;20035;-93
2023/09/06 05:30:31;;;;;;;8.80;6.03;;;10.40;99.90;;;;;;5035031;28;20049;-92
2023/09/06 05:32:58;;;;;;;11.05;6.40;;;10.60;99.90;;;;;;5035399;28;20018;-93
2023/09/06 05:35:24;;;;;;;12.95;7.63;;;10.70;99.90;;;;;;5036933;28;20071;-89
2023/09/06 05:37:50;;;;;;;12.15;6.72;;;10.90;99.90;;;;;;5028991;28;20174;-92
2023/09/06 05:40:22;;;;;;;14.75;7.88;;;11.10;99.90;;;;;;5034615;28;20048;-89
2023/09/06 05:42:48;;;;;;;11.45;7.60;;;11.30;99.90;;;;;;5027812;28;20018;-88
2023/09/06 05:45:13;;;;;;;13.73;7.32;;;11.50;99.90;;;;;;5034068;28;20489;-88
2023/09/06 05:47:39;;;;;;;13.00;7.50;;;11.80;99.90;;;;;;5034134;28;20198;-87
2023/09/06 05:50:06;;;;;;;13.15;7.57;;;12.00;99.90;;;;;;5027642;28;20013;-89
2023/09/06 05:52:32;;;;;;;15.02;7.72;;;12.30;99.90;;;;;;5033776;28;20030;-87
2023/09/06 05:54:58;;;;;;;11.57;7.38;;;12.50;99.90;;;;;;5029842;28;20146;-86
2023/09/06 05:57:24;;;;;;;12.07;7.75;;;12.80;99.90;;;;;;5030301;28;20092;-90
2023/09/06 05:59:50;;;;;;;13.98;7.78;;;13.00;99.90;;;;;;5030174;28;20036;-90
2023/09/06 06:02:15;;;;;;;10.63;6.80;;;13.30;99.90;;;;;;5028570;28;20022;-92
2023/09/06 06:04:45;;;;;;;11.70;7.20;;;13.60;99.90;;;;;;5035351;28;20049;-92
2023/09/06 06:07:12;;;;;;;8.52;5.85;;;13.90;99.90;;;;;;5023003;28;20030;-87
2023/09/06 06:09:37;;;;;;;7.10;5.70;;;14.20;99.90;;;;;;5034758;28;20056;-86
2023/09/06 06:12:03;;;;;;;7.38;5.47;;;14.60;99.90;;;;;;5021056;28;20057;-86
2023/09/06 06:14:30;;;;;;;8.27;5.00;;;14.80;99.90;;;;;;5028215;28;20042;-86
2023/09/06 06:16:57;;;;;;;7.50;5.68;;;15.20;99.90;;;;;;5026160;28;20037;-86
2023/09/06 06:19:23;;;;;;;6.97;5.00;;;15.50;99.90;;;;;;5025642;28;20064;-86
2023/09/06 06:21:50;;;;;;;5.95;5.05;;;15.80;99.90;;;;;;5026013;28;20070;-87
2023/09/06 06:24:16;;;;;;;6.53;4.95;;;16.00;99.90;;;;;;5030354;28;20033;-86
2023/09/06 06:26:41;;;;;;;6.22;4.45;;;16.20;99.90;;;;;;5029857;28;20390;-89
2023/09/06 06:29:07;;;;;;;10.05;5.32;;;16.40;99.90;;;;;;5040914;28;20017;-86
2023/09/06 06:31:33;;;;;;;7.13;4.72;;;16.70;99.90;;;;;;5031623;28;20051;-87
2023/09/06 06:33:59;;;;;;;5.38;4.80;;;16.90;99.90;;;;;;5046585;28;20021;-91
2023/09/06 06:36:25;;;;;;;6.35;4.85;;;17.00;99.90;;;;;;5038077;28;20057;-91
2023/09/06 06:38:51;;;;;;;9.27;5.40;;;17.20;99.90;;;;;;5035346;28;20120;-90
2023/09/06 06:41:22;;;;;;;5.65;4.70;;;17.40;99.90;;;;;;5027206;28;20101;-87
2023/09/06 06:43:52;;;;;;;5.82;5.22;;;17.60;99.90;;;;;;5030813;28;20021;-88
2023/09/06 06:46:25;;;;;;;6.30;5.13;;;17.70;99.40;;;;;;5031095;28;20030;-88
2023/09/06 06:48:51;;;;;;;6.72;5.05;;;17.80;98.70;;;;;;5023507;28;20030;-87
2023/09/06 06:51:17;;;;;;;5.53;4.32;;;18.00;99.90;;;;;;5040971;28;20028;-90
2023/09/06 06:53:42;;;;;;;8.27;4.78;;;18.10;99.20;;;;;;5031376;28;20383;-90
2023/09/06 06:56:08;;;;;;;6.72;4.32;;;18.30;99.10;;;;;;5032243;28;20033;-88
2023/09/06 06:58:34;;;;;;;8.32;5.07;;;18.30;94.20;;;;;;5040428;28;20029;-87
2023/09/06 07:01:00;;;;;;;5.35;4.80;;;18.50;95.80;;;;;;5030380;28;20534;-87
2023/09/06 07:03:26;;;;;;;5.82;4.50;;;18.60;89.30;;;;;;5033987;28;20462;-88
2023/09/06 07:05:52;;;;;;;7.32;4.68;;;18.70;87.40;;;;;;5033419;28;20069;-87
2023/09/06 07:08:18;;;;;;;5.45;4.60;;;18.80;86.40;;;;;;5027223;28;20021;-87
2023/09/06 07:10:43;;;;;;;5.25;4.72;;;18.70;84.20;;;;;;5029054;28;20029;-92
2023/09/06 07:13:09;;;;;;;7.07;4.95;;;18.70;85.10;;;;;;5030996;28;20405;-87
2023/09/06 07:15:35;;;;;;;6.60;5.13;;;18.80;87.00;;;;;;5035475;28;20034;-87
2023/09/06 07:18:04;;;;;;;5.65;5.07;;;19.00;88.80;;;;;;5033477;28;20388;-90
2023/09/06 07:20:30;;;;;;;8.30;5.20;;;19.00;85.50;;;;;;5031384;28;20374;-88
2023/09/06 07:22:56;;;;;;;6.63;5.13;;;19.00;84.60;;;;;;5034467;28;20101;-87
2023/09/06 07:25:21;;;;;;;7.63;4.78;;;19.20;86.60;;;;;;5035339;28;20104;-91
2023/09/06 07:27:47;;;;;;;7.25;4.80;;;19.40;86.70;;;;;;5029437;28;20018;-91
2023/09/06 07:30:13;;;;;;;5.93;4.90;;;19.50;82.00;;;;;;5031369;28;20021;-92
2023/09/06 07:32:38;;;;;;;9.23;4.93;;;19.60;81.60;;;;;;5030869;28;20026;-91
2023/09/06 07:35:06;;;;;;;6.38;5.20;;;19.60;78.90;;;;;;5031863;28;20028;-87
2023/09/06 07:37:31;;;;;;;9.18;5.00;;;19.70;79.20;;;;;;5031888;28;20608;-87
2023/09/06 07:40:01;;;;;;;7.72;4.55;;;19.90;80.00;;;;;;5032826;28;20068;-87
2023/09/06 07:42:27;;;;;;;4.45;3.60;;;20.00;78.10;;;;;;5032631;28;20151;-92
2023/09/06 07:44:53;;;;;;;6.90;4.10;;;20.00;74.30;;;;;;5030759;28;20528;-92
2023/09/06 07:47:19;;;;;;;6.75;4.90;;;20.20;74.30;;;;;;5029953;28;20074;-90
2023/09/06 07:49:44;;;;;;;5.30;4.60;;;20.20;74.10;;;;;;5033094;28;20021;-89
2023/09/06 07:52:11;;;;;;;5.32;4.03;;;20.30;73.90;;;;;;5038482;28;20022;-92
2023/09/06 07:54:37;;;;;;;4.88;3.90;;;20.30;71.50;;;;;;5040821;28;20021;-91
2023/09/06 07:57:04;;;;;;;6.35;3.45;;;20.40;69.40;;;;;;5046796;28;20036;-91
2023/09/06 07:59:30;;;;;;;5.20;4.05;;;20.50;69.50;;;;;;5036586;28;20017;-86
2023/09/06 08:01:56;;;;;;;5.13;3.85;;;20.60;69.70;;;;;;5035408;28;20386;-92
2023/09/06 08:04:22;;;;;;;4.47;3.97;;;20.70;70.80;;;;;;5032839;28;20077;-86
2023/09/06 08:06:48;;;;;;;7.07;4.25;;;20.80;70.20;;;;;;5036331;28;20421;-86
2023/09/06 08:09:13;;;;;;;4.57;3.80;;;20.80;70.00;;;;;;5042202;28;20021;-92
2023/09/06 08:11:39;;;;;;;5.20;4.38;;;20.90;70.80;;;;;;5045133;28;20050;-85
2023/09/06 08:14:05;;;;;;;4.20;3.80;;;21.00;69.40;;;;;;5032564;28;20105;-86
2023/09/06 08:16:31;;;;;;;7.30;4.47;;;21.00;69.50;;;;;;5033282;28;20033;-86
2023/09/06 08:18:57;;;;;;;5.75;4.35;;;21.10;70.00;;;;;;5027203;28;20018;-86
2023/09/06 08:21:23;;;;;;;4.85;4.35;;;21.20;68.70;;;;;;5027294;28;20028;-91
2023/09/06 08:23:48;;;;;;;7.78;4.40;;;21.30;68.70;;;;;;5027185;28;20056;-86
2023/09/06 08:26:14;;;;;;;5.03;4.07;;;21.40;68.30;;;;;;5037581;28;20048;-86
2023/09/06 08:28:40;;;;;;;3.92;3.58;;;21.50;66.10;;;;;;5033529;28;20029;-90
2023/09/06 08:31:06;;;;;;;5.88;3.97;;;21.50;63.40;;;;;;5036034;28;20034;-92
2023/09/06 08:33:32;;;;;;;4.20;3.78;;;21.70;64.20;;;;;;5033368;28;20073;-87
2023/09/06 08:36:01;;;;;;;5.25;3.70;;;21.80;62.70;;;;;;5047537;28;20482;-86
2023/09/06 08:38:26;;;;;;;4.55;3.50;;;21.80;60.60;;;;;;5025629;28;20939;-86
2023/09/06 08:40:52;;;;;;;4.55;4.13;;;22.00;60.90;;;;;;5024730;28;20021;-91
2023/09/06 08:43:23;;;;;;;3.22;2.92;;;22.10;61.40;;;;;;5028438;28;20018;-92
2023/09/06 08:45:51;;;;;;;3.70;3.30;;;22.20;61.20;;;;;;5041309;28;20025;-87
2023/09/06 08:48:17;;;;;;;3.70;3.03;;;22.20;59.10;;;;;;5036035;28;20097;-89
2023/09/06 08:50:45;;;;;;;4.47;3.10;;;22.20;59.90;;;;;;5049335;28;20014;-91
2023/09/06 08:53:11;;;;;;;3.45;3.15;;;22.10;58.90;;;;;;5034408;28;20100;-91
2023/09/06 08:55:37;;;;;;;6.63;2.97;;;22.10;59.00;;;;;;5045254;28;20036;-90
2023/09/06 08:58:03;;;;;;;3.50;2.90;;;22.10;58.30;;;;;;5044999;28;20009;-86
2023/09/06 09:00:30;;;;;;;4.85;3.55;;;22.30;58.80;;;;;;5049381;28;20115;-91
2023/09/06 09:02:57;;;;;;;3.58;3.08;;;22.50;58.70;;;;;;5044905;28;20071;-91
2023/09/06 09:05:23;;;;;;;5.60;3.53;;;22.60;59.30;;;;;;5030142;28;20109;-92
2023/09/06 09:08:00;;;;;;;3.70;3.40;;;22.60;59.70;;;;;;5028280;28;20026;-86
2023/09/06 09:10:28;;;;;;;3.65;3.35;;;22.50;59.20;;;;;;5029568;28;20494;-91
2023/09/06 09:12:56;;;;;;;5.63;3.40;;;22.50;58.50;;;;;;5029459;28;20036;-87
2023/09/06 09:15:25;;;;;;;3.58;3.10;;;22.60;58.70;;;;;;5029383;28;20041;-86
2023/09/06 09:17:51;;;;;;;4.57;3.25;;;22.50;58.30;;;;;;5029679;28;20025;-87
2023/09/06 09:20:18;;;;;;;5.20;3.53;;;22.40;58.30;;;;;;5029698;28;20081;-91
2023/09/06 09:22:45;;;;;;;4.57;3.58;;;22.60;58.60;;;;;;5029503;28;20475;-91
2023/09/06 09:25:17;;;;;;;3.85;3.38;;;22.70;57.90;;;;;;5029226;28;20022;-86
2023/09/06 09:27:47;;;;;;;4.47;2.80;;;22.70;57.60;;;;;;5028572;28;20562;-92
2023/09/06 09:30:14;;;;;;;5.05;3.30;;;22.90;58.20;;;;;;5029321;28;20066;-87
2023/09/06 09:32:40;;;;;;;3.80;3.45;;;22.80;56.30;;;;;;5029187;28;20025;-87
2023/09/06 09:35:13;;;;;;;3.65;2.97;;;22.80;56.90;;;;;;5028184;28;20013;-91
2023/09/06 09:37:40;;;;;;;4.90;3.33;;;23.00;56.80;;;;;;5029564;28;20053;-86
2023/09/06 09:40:32;;;;;;;5.10;3.70;;;23.00;57.10;;;;;;5027815;28;20486;-86
2023/09/06 09:43:02;;;;;;;4.43;3.33;;;23.10;57.60;;;;;;5029296;28;20029;-86
2023/09/06 09:45:31;;;;;;;3.33;2.92;;;23.10;56.60;;;;;;5029145;28;20052;-87
2023/09/06 09:47:57;;;;;;;7.07;3.90;;;23.10;57.30;;;;;;5029243;28;20038;-92
2023/09/06 09:50:26;;;;;;;3.92;3.28;;;23.20;57.00;;;;;;5028167;28;20113;-91
2023/09/06 09:52:52;;;;;;;4.50;3.20;;;23.30;57.30;;;;;;5027405;28;20033;-91
2023/09/06 09:55:27;;;;;;;4.93;3.38;;;23.30;57.10;;;;;;5027884;28;20037;-91
2023/09/06 09:57:54;;;;;;;4.25;3.75;;;23.30;56.50;;;;;;5028871;28;20017;-90
2023/09/06 10:00:27;;;;;;;4.50;2.92;;;23.20;56.20;;;;;;5031310;28;20567;-91
2023/09/06 10:02:57;;;;;;;8.30;3.92;;;23.30;57.40;;;;;;5031737;28;20024;-92
2023/09/06 10:05:26;;;;;;;5.88;3.83;;;23.30;57.00;;;;;;5030799;28;20028;-90
2023/09/06 10:07:55;;;;;;;6.00;3.28;;;23.40;56.80;;;;;;5033334;28;20022;-87
2023/09/06 10:10:21;;;;;;;4.00;3.60;;;23.40;57.00;;;;;;5032144;28;20467;-91
2023/09/06 10:12:50;;;;;;;5.15;3.78;;;23.40;55.70;;;;;;5030882;28;20014;-87
2023/09/06 10:15:19;;;;;;;5.18;3.35;;;23.50;55.80;;;;;;5033676;28;20113;-91
2023/09/06 10:17:47;;;;;;;6.55;2.90;;;23.40;55.60;;;;;;5031001;28;20078;-88
2023/09/06 10:20:14;;;;;;;3.58;3.03;;;23.50;56.60;;;;;;5032858;28;20025;-88
2023/09/06 10:22:44;;;;;;;5.22;3.53;;;23.60;56.30;;;;;;5027048;28;20069;-92
2023/09/06 10:25:10;;;;;;;5.38;3.55;;;23.60;56.20;;;;;;5029372;28;20424;-92
2023/09/06 10:27:50;;;;;;;4.10;3.70;;;23.50;56.10;;;;;;5033196;28;20034;-90
2023/09/06 10:30:19;;;;;;;5.75;3.70;;;23.60;56.50;;;;;;5030949;28;20021;-88
2023/09/06 10:32:46;;;;;;;4.05;3.50;;;23.50;55.00;;;;;;5032270;28;20372;-88
2023/09/06 10:35:30;;;;;;;5.05;3.58;;;23.60;55.60;;;;;;5033708;28;20483;-87
2023/09/06 10:38:22;;;;;;;4.07;3.55;;;23.70;56.70;;;;;;5034723;28;20052;-91
2023/09/06 10:40:51;;;;;;;;;;;23.90;56.70;;;;;;5021912;28;20033;-91
2023/09/06 10:43:18;;;;;;;4.47;3.30;;;23.80;55.10;;;;;;5030184;28;19906;-87
2023/09/06 10:45:58;;;;;;;4.03;3.53;;;23.70;54.50;;;;;;5032060;28;20029;-87
2023/09/06 10:48:24;;;;;;;5.15;3.28;;;23.70;54.60;;;;;;5019661;28;20120;-91
2023/09/06 10:51:07;;;;;;;3.90;3.15;;;23.70;54.20;;;;;;5030439;28;20022;-92
2023/09/06 10:53:34;;;;;;;4.78;3.60;;;23.80;54.40;;;;;;5019755;28;20025;-91
2023/09/06 10:56:02;;;;;;;4.43;3.28;;;23.70;53.40;;;;;;5030547;28;20061;-87
2023/09/06 10:58:29;;;;;;;5.93;3.35;;;23.80;54.10;;;;;;5031257;28;20022;-88
2023/09/06 11:01:13;;;;;;;3.65;3.30;;;23.70;55.20;;;;;;5030654;28;20021;-91
2023/09/06 11:03:41;;;;;;;3.97;3.38;;;23.70;54.20;;;;;;5030576;28;20475;-91
2023/09/06 11:06:07;;;;;;;5.25;3.42;;;23.90;55.40;;;;;;5031596;28;20020;-87
2023/09/06 11:08:33;;;;;;;4.40;3.00;;;24.00;55.10;;;;;;5030443;28;20382;-91
2023/09/06 11:11:08;;;;;;;5.55;3.70;;;24.10;55.00;;;;;;5031195;28;20049;-92
2023/09/06 11:13:38;;;;;;;3.88;3.22;;;24.10;52.30;;;;;;5030231;28;20078;-92
2023/09/06 11:16:05;;;;;;;4.65;3.67;;;24.10;52.30;;;;;;5025154;28;20068;-91
2023/09/06 11:18:33;;;;;;;3.63;3.30;;;24.10;53.30;;;;;;5025550;28;20086;-87
2023/09/06 11:20:59;;;;;;;3.60;3.28;;;24.10;54.20;;;;;;5031814;28;20021;-88
2023/09/06 11:23:26;;;;;;;4.00;3.10;;;24.10;54.00;;;;;;5031255;28;20113;-89
2023/09/06 11:25:59;;;;;;;4.97;3.40;;;24.20;54.30;;;;;;5030895;28;20017;-88
2023/09/06 11:28:29;;;;;;;4.47;3.63;;;24.30;54.30;;;;;;5027969;28;20026;-87
2023/09/06 11:30:55;;;;;;;4.72;3.63;;;24.30;52.60;;;;;;5022635;28;20071;-87
2023/09/06 11:33:29;;;;;;;4.15;3.08;;;24.50;52.90;;;;;;5028387;28;20045;-88
2023/09/06 11:35:58;;;;;;;3.95;3.47;;;24.50;53.00;;;;;;5024412;28;20038;-87
2023/09/06 11:38:30;;;;;;;5.03;3.72;;;24.40;53.20;;;;;;5027570;28;20042;-87
2023/09/06 11:40:57;;;;;;;4.18;3.33;;;24.40;52.50;;;;;;5024142;28;20078;-88
2023/09/06 11:43:27;;;;;;;3.92;3.50;;;24.30;52.80;;;;;;5028857;28;20419;-88
2023/09/06 11:46:01;;;;;;;3.88;3.58;;;24.50;51.80;;;;;;5021742;28;20449;-88
2023/09/06 11:48:30;;;;;;;3.78;2.80;;;24.30;50.20;;;;;;5040696;28;20062;-87
2023/09/06 11:51:08;;;;;;;4.65;3.65;;;24.40;50.70;;;;;;5021172;28;20030;-87
2023/09/06 11:53:37;;;;;;;4.13;3.58;;;24.40;50.00;;;;;;5014988;28;20026;-87
2023/09/06 11:56:07;;;;;;;4.07;3.13;;;24.40;50.10;;;;;;5012723;28;20042;-87
2023/09/06 11:58:42;;;;;;;6.82;3.22;;;24.30;51.20;;;;;;5024809;28;20025;-87
2023/09/06 12:01:10;;;;;;;3.30;3.00;;;24.40;51.00;;;;;;5025590;28;20440;-87
2023/09/06 12:03:45;;;;;;;5.85;3.35;;;24.50;50.90;;;;;;5025731;28;20068;-87
2023/09/06 12:06:10;;;;;;;4.80;3.67;;;24.50;51.10;;;;;;5026353;28;20082;-87
2023/09/06 12:08:38;;;;;;;5.53;4.10;;;24.60;52.20;;;;;;5026358;28;20433;-87
2023/09/06 12:11:10;;;;;;;5.53;4.03;;;24.60;54.00;;;;;;5027932;28;20375;-89
2023/09/06 12:13:38;;;;;;;5.35;3.78;;;24.60;54.30;;;;;;5028760;28;20101;-88
2023/09/06 12:16:05;;;;;;;5.53;3.53;;;24.60;53.50;;;;;;5029160;28;20063;-88
2023/09/06 12:18:33;;;;;;;6.20;4.15;;;24.50;51.50;;;;;;5024873;28;20046;-88
2023/09/06 12:20:59;;;;;;;5.10;3.65;;;24.60;52.50;;;;;;5033354;28;20021;-86
2023/09/06 12:23:28;;;;;;;3.53;3.22;;;24.80;52.80;;;;;;5027440;28;20048;-86
2023/09/06 12:25:55;;;;;;;4.20;3.35;;;24.80;53.50;;;;;;5034717;28;20045;-86
2023/09/06 12:28:21;;;;;;;4.28;3.50;;;24.90;53.00;;;;;;5038509;28;20046;-88
2023/09/06 12:30:46;;;;;;;5.03;3.53;;;24.80;51.70;;;;;;5038433;28;20038;-87
2023/09/06 12:33:14;;;;;;;6.78;3.78;;;24.80;51.70;;;;;;5029814;28;20064;-90
2023/09/06 12:35:40;;;;;;;4.50;3.53;;;24.80;51.60;;;;;;5029552;28;20061;-91
2023/09/06 12:38:06;;;;;;;5.85;3.78;;;24.70;51.70;;;;;;5026695;28;20453;-87
2023/09/06 12:40:33;;;;;;;5.22;3.45;;;24.60;51.70;;;;;;5031716;28;20030;-88
2023/09/06 12:42:59;;;;;;;5.10;3.80;;;24.60;52.20;;;;;;5055767;27;20515;-88
2023/09/06 12:45:30;;;;;;;4.22;3.22;;;24.70;53.50;;;;;;5027639;28;20372;-91
2023/09/06 12:47:57;;;;;;;5.55;3.58;;;24.70;52.50;;;;;;5037756;28;20029;-91
2023/09/06 12:50:23;;;;;;;11.75;4.22;;;24.80;52.80;;;;;;5056943;27;20019;-88
2023/09/06 12:52:50;;;;;;;4.55;3.25;;;24.80;53.10;;;;;;5028731;28;20037;-86
2023/09/06 12:55:15;;;;;;;4.40;3.65;;;24.90;53.00;;;;;;5021631;28;20018;-91